Time;durP1;ratioP1;P1;durP2;ratioP2;P2;SDS_P1;SDS_P2;PMS_P1;PMS_P2;Temp;Humidity;BMP_temperature;BMP_pressure;BME280_temperature;BME280_humidity;BME280_pressure;Samples;Min_cycle;Max_cycle;Signal;HPM_P1;HPM_P2
2021/05/16 00:00:21;;;;;;;6.10;3.10;;;11.70;81.10;;;;;;5044235;28;20510;-91
2021/05/16 00:02:47;;;;;;;4.53;3.17;;;11.80;81.00;;;;;;5031967;28;20044;-88
2021/05/16 00:05:14;;;;;;;4.22;2.75;;;11.80;80.80;;;;;;5045928;28;20033;-89
2021/05/16 00:07:40;;;;;;;4.47;3.10;;;11.90;80.90;;;;;;5051510;28;20132;-90
2021/05/16 00:10:07;;;;;;;4.80;2.88;;;11.90;80.80;;;;;;5049824;28;20032;-89
2021/05/16 00:12:34;;;;;;;6.28;3.50;;;11.90;80.60;;;;;;5050391;28;20028;-88
2021/05/16 00:14:59;;;;;;;4.00;2.95;;;12.00;80.60;;;;;;5040049;28;20029;-88
2021/05/16 00:17:26;;;;;;;7.38;4.05;;;12.00;80.50;;;;;;5050044;28;20029;-89
2021/05/16 00:19:51;;;;;;;5.28;3.35;;;12.00;80.60;;;;;;5042426;28;20100;-89
2021/05/16 00:22:17;;;;;;;5.88;3.50;;;12.00;80.70;;;;;;5049718;28;20140;-89
2021/05/16 00:24:43;;;;;;;5.55;3.90;;;12.00;80.80;;;;;;5039830;28;20052;-88
2021/05/16 00:27:08;;;;;;;4.00;2.97;;;12.00;80.80;;;;;;5032077;28;20476;-89
2021/05/16 00:29:34;;;;;;;8.18;4.75;;;12.00;80.70;;;;;;5029927;28;20053;-89
2021/05/16 00:32:00;;;;;;;5.65;4.20;;;12.10;80.80;;;;;;5031288;28;20353;-91
2021/05/16 00:34:25;;;;;;;7.65;3.63;;;12.10;80.90;;;;;;5032051;28;20539;-87
2021/05/16 00:36:51;;;;;;;6.50;3.83;;;12.10;80.80;;;;;;5050510;28;20040;-89
2021/05/16 00:39:17;;;;;;;7.65;3.80;;;12.10;80.90;;;;;;5049362;28;20029;-88
2021/05/16 00:41:42;;;;;;;8.85;5.53;;;12.10;80.80;;;;;;5037763;28;20373;-87
2021/05/16 00:44:08;;;;;;;6.55;3.75;;;12.10;81.10;;;;;;5039711;28;20017;-88
2021/05/16 00:46:35;;;;;;;6.20;3.40;;;12.10;81.20;;;;;;5041664;28;20037;-86
2021/05/16 00:49:00;;;;;;;11.23;6.25;;;12.10;81.30;;;;;;5050029;28;20021;-85
2021/05/16 00:51:26;;;;;;;9.10;4.88;;;12.10;81.40;;;;;;5041296;28;20752;-86
2021/05/16 00:53:51;;;;;;;10.45;4.90;;;12.10;82.20;;;;;;5045810;28;20027;-87
2021/05/16 00:56:17;;;;;;;8.27;4.40;;;12.10;81.70;;;;;;5045372;28;20109;-87
2021/05/16 00:58:43;;;;;;;7.40;3.97;;;12.10;81.70;;;;;;5050040;28;20017;-86
2021/05/16 01:01:10;;;;;;;4.85;2.90;;;12.10;81.80;;;;;;5045055;28;20013;-87
2021/05/16 01:03:36;;;;;;;8.00;4.10;;;12.10;81.50;;;;;;5043779;28;20550;-90
2021/05/16 01:06:02;;;;;;;7.63;3.40;;;12.20;81.50;;;;;;5040741;28;20045;-89
2021/05/16 01:08:27;;;;;;;11.48;4.65;;;12.20;81.50;;;;;;5054210;28;20032;-89
2021/05/16 01:10:53;;;;;;;6.32;2.90;;;12.20;81.50;;;;;;5053620;28;20056;-89
2021/05/16 01:13:19;;;;;;;11.02;4.57;;;12.20;81.60;;;;;;5053982;28;20025;-89
2021/05/16 01:15:46;;;;;;;6.25;3.78;;;12.20;81.60;;;;;;5051840;28;20025;-90
2021/05/16 01:18:13;;;;;;;8.43;4.00;;;12.20;81.50;;;;;;5033181;28;20384;-90
2021/05/16 01:20:42;;;;;;;7.22;4.20;;;12.20;81.50;;;;;;5053597;28;20029;-87
2021/05/16 01:23:17;;;;;;;5.63;2.92;;;12.20;81.70;;;;;;5051120;28;20048;-87
2021/05/16 01:25:45;;;;;;;7.78;3.70;;;12.10;81.80;;;;;;5050894;28;20037;-88
2021/05/16 01:28:13;;;;;;;8.32;4.47;;;12.10;81.90;;;;;;5052994;28;20108;-88
2021/05/16 01:30:39;;;;;;;7.82;4.03;;;12.10;82.10;;;;;;5047974;28;20026;-85
2021/05/16 01:33:06;;;;;;;7.00;4.20;;;12.00;82.20;;;;;;5048246;28;20079;-88
2021/05/16 01:35:33;;;;;;;6.75;3.90;;;12.00;82.40;;;;;;5048827;28;20083;-87
2021/05/16 01:38:00;;;;;;;6.30;3.58;;;12.00;82.30;;;;;;5042055;28;20069;-87
2021/05/16 01:40:26;;;;;;;7.63;4.10;;;12.00;82.20;;;;;;5048231;28;20039;-89
2021/05/16 01:42:55;;;;;;;5.55;3.90;;;12.00;82.10;;;;;;5050688;28;20021;-92
2021/05/16 01:45:24;;;;;;;5.13;3.40;;;12.00;82.10;;;;;;5048466;28;20438;-86
2021/05/16 01:47:51;;;;;;;6.68;3.35;;;12.10;82.00;;;;;;5051779;28;20479;-87
2021/05/16 01:50:19;;;;;;;5.85;3.13;;;12.10;81.90;;;;;;5049931;28;20394;-87
2021/05/16 01:52:47;;;;;;;5.35;3.47;;;12.20;81.80;;;;;;5050047;28;20028;-85
2021/05/16 01:55:15;;;;;;;6.68;3.38;;;12.10;81.80;;;;;;5049975;28;20092;-86
2021/05/16 01:57:43;;;;;;;5.68;2.85;;;12.20;81.90;;;;;;5050429;28;20459;-86
2021/05/16 02:00:12;;;;;;;5.57;2.65;;;12.20;81.80;;;;;;5043069;28;20080;-87
2021/05/16 02:02:38;;;;;;;8.75;3.33;;;12.20;81.80;;;;;;5050576;28;20521;-87
2021/05/16 02:05:05;;;;;;;10.00;4.10;;;12.20;81.80;;;;;;5047868;28;20394;-87
2021/05/16 02:07:32;;;;;;;11.25;4.20;;;12.20;82.20;;;;;;5049040;28;20441;-89
2021/05/16 02:09:58;;;;;;;9.85;4.03;;;12.20;81.80;;;;;;5051989;28;20146;-87
2021/05/16 02:12:24;;;;;;;11.27;4.03;;;12.20;81.80;;;;;;5042910;28;20571;-89
2021/05/16 02:14:50;;;;;;;9.32;3.97;;;12.10;81.80;;;;;;5050240;28;20029;-89
2021/05/16 02:17:16;;;;;;;9.70;3.58;;;12.10;81.80;;;;;;5040885;28;20022;-86
2021/05/16 02:19:42;;;;;;;8.00;3.10;;;12.10;81.80;;;;;;5034826;28;20067;-86
2021/05/16 02:22:08;;;;;;;9.10;3.75;;;12.20;81.80;;;;;;5051969;28;20033;-86
2021/05/16 02:24:33;;;;;;;10.02;3.20;;;12.10;81.70;;;;;;5040493;28;20027;-86
2021/05/16 02:27:00;;;;;;;7.78;3.28;;;12.20;81.60;;;;;;5048099;28;20021;-85
2021/05/16 02:29:30;;;;;;;12.10;4.00;;;12.20;81.60;;;;;;5049301;28;20479;-85
2021/05/16 02:31:57;;;;;;;9.05;3.50;;;12.20;81.50;;;;;;5040366;28;20397;-83
2021/05/16 02:34:22;;;;;;;6.47;2.63;;;12.20;81.50;;;;;;5040727;28;20116;-87
2021/05/16 02:36:48;;;;;;;9.15;3.13;;;12.20;81.40;;;;;;5050270;28;20555;-86
2021/05/16 02:39:14;;;;;;;8.32;2.97;;;12.20;82.00;;;;;;5051016;28;20082;-86
2021/05/16 02:41:40;;;;;;;9.90;3.70;;;12.20;81.20;;;;;;5038025;28;20029;-85
2021/05/16 02:44:06;;;;;;;11.10;3.72;;;12.20;81.20;;;;;;5041802;28;20372;-85
2021/05/16 02:46:32;;;;;;;12.52;4.30;;;12.30;81.20;;;;;;5049620;28;20035;-87
2021/05/16 02:48:57;;;;;;;14.13;4.00;;;12.20;81.30;;;;;;5047694;28;20013;-88
2021/05/16 02:51:23;;;;;;;9.13;3.00;;;12.20;81.40;;;;;;5049821;28;20167;-87
2021/05/16 02:53:49;;;;;;;8.48;3.83;;;12.20;81.50;;;;;;5044873;28;20032;-89
2021/05/16 02:56:16;;;;;;;12.80;4.70;;;12.20;81.50;;;;;;5043631;28;20021;-90
2021/05/16 02:58:42;;;;;;;9.52;3.47;;;12.10;81.50;;;;;;5048142;28;20017;-87
2021/05/16 03:01:08;;;;;;;9.43;3.20;;;12.10;81.50;;;;;;5049829;28;20024;-88
2021/05/16 03:03:34;;;;;;;7.93;3.45;;;12.20;81.40;;;;;;5045113;28;20043;-87
2021/05/16 03:06:00;;;;;;;12.38;3.80;;;12.10;81.30;;;;;;5050272;28;20025;-87
2021/05/16 03:08:25;;;;;;;8.95;3.83;;;12.10;81.30;;;;;;5043302;28;20030;-87
2021/05/16 03:10:51;;;;;;;13.77;4.15;;;12.10;81.50;;;;;;5043656;28;20033;-87
2021/05/16 03:13:17;;;;;;;8.48;3.50;;;12.10;81.40;;;;;;5049901;28;20021;-87
2021/05/16 03:15:42;;;;;;;7.63;3.08;;;12.10;81.40;;;;;;5029433;28;20028;-88
2021/05/16 03:18:08;;;;;;;8.07;3.33;;;12.20;81.40;;;;;;5035137;28;20036;-86
2021/05/16 03:20:33;;;;;;;12.13;4.07;;;12.20;81.20;;;;;;5037517;28;20057;-88
2021/05/16 03:22:59;;;;;;;12.35;3.67;;;12.20;81.20;;;;;;5041141;28;20017;-89
2021/05/16 03:25:25;;;;;;;12.25;4.80;;;12.10;81.30;;;;;;5051045;28;20045;-89
2021/05/16 03:27:50;;;;;;;13.65;5.00;;;12.10;81.30;;;;;;5045667;28;20021;-87
2021/05/16 03:30:16;;;;;;;11.23;3.65;;;12.10;81.40;;;;;;5039277;28;20029;-86
2021/05/16 03:32:42;;;;;;;18.30;5.47;;;12.10;81.50;;;;;;5033997;28;20107;-84
2021/05/16 03:35:10;;;;;;;9.63;3.58;;;12.00;81.50;;;;;;5032690;28;20408;-87
2021/05/16 03:37:36;;;;;;;10.70;3.33;;;12.00;81.60;;;;;;5031717;28;20025;-86
2021/05/16 03:40:03;;;;;;;11.27;3.55;;;12.00;81.50;;;;;;5045201;28;20023;-86
2021/05/16 03:42:28;;;;;;;8.73;3.05;;;12.00;81.50;;;;;;5032154;28;20388;-86
2021/05/16 03:44:55;;;;;;;5.80;2.63;;;12.00;81.50;;;;;;5035704;28;20037;-87
2021/05/16 03:47:21;;;;;;;9.88;3.20;;;12.10;81.40;;;;;;5030551;28;20036;-86
2021/05/16 03:49:47;;;;;;;10.60;3.60;;;12.10;81.20;;;;;;5039911;28;20104;-86
2021/05/16 03:52:12;;;;;;;9.43;3.03;;;12.10;81.20;;;;;;5042106;28;20022;-87
2021/05/16 03:54:40;;;;;;;6.47;2.30;;;12.10;81.30;;;;;;5043257;28;20025;-86
2021/05/16 03:57:06;;;;;;;10.43;3.40;;;12.10;81.20;;;;;;5031956;28;20365;-86
2021/05/16 03:59:32;;;;;;;9.98;3.38;;;12.10;81.10;;;;;;5045032;28;20020;-85
2021/05/16 04:01:57;;;;;;;10.00;3.47;;;12.10;81.10;;;;;;5032840;28;20041;-85
2021/05/16 04:04:23;;;;;;;15.95;4.95;;;12.10;81.00;;;;;;5039979;28;20025;-86
2021/05/16 04:06:49;;;;;;;13.48;4.28;;;12.20;81.10;;;;;;5050164;28;20044;-86
2021/05/16 04:09:14;;;;;;;14.15;4.18;;;12.10;81.00;;;;;;5045399;28;20025;-86
2021/05/16 04:11:40;;;;;;;11.02;3.40;;;12.10;81.00;;;;;;5049782;28;20029;-87
2021/05/16 04:14:06;;;;;;;11.10;4.35;;;12.10;81.00;;;;;;5048109;28;20108;-87
2021/05/16 04:16:31;;;;;;;14.38;5.15;;;12.10;80.90;;;;;;5049456;28;20039;-88
2021/05/16 04:18:57;;;;;;;15.65;4.70;;;12.10;81.00;;;;;;5047489;28;20420;-88
2021/05/16 04:21:23;;;;;;;12.90;5.35;;;12.00;81.00;;;;;;5050670;28;20020;-88
2021/05/16 04:23:48;;;;;;;20.38;6.50;;;11.90;81.20;;;;;;5050020;28;20028;-88
2021/05/16 04:26:14;;;;;;;14.18;5.53;;;11.90;81.30;;;;;;5050277;28;20056;-87
2021/05/16 04:28:39;;;;;;;16.10;5.78;;;11.90;81.50;;;;;;5050703;28;20463;-88
2021/05/16 04:31:05;;;;;;;17.17;5.80;;;11.90;81.50;;;;;;5050702;28;20033;-87
2021/05/16 04:33:30;;;;;;;17.42;5.97;;;11.90;81.50;;;;;;5050206;28;20017;-87
2021/05/16 04:35:58;;;;;;;13.65;5.30;;;11.90;81.50;;;;;;5048581;28;20039;-88
2021/05/16 04:38:24;;;;;;;9.73;3.83;;;11.90;81.70;;;;;;5044480;28;20017;-87
2021/05/16 04:40:49;;;;;;;11.80;4.68;;;11.90;81.60;;;;;;5047940;28;20036;-87
2021/05/16 04:43:15;;;;;;;14.27;5.93;;;11.90;81.50;;;;;;5054521;28;20035;-88
2021/05/16 04:45:40;;;;;;;17.20;6.28;;;12.00;81.40;;;;;;5040401;28;20125;-87
2021/05/16 04:48:07;;;;;;;13.63;4.93;;;11.90;81.40;;;;;;5054743;28;20032;-90
2021/05/16 04:50:33;;;;;;;11.48;4.53;;;12.00;81.40;;;;;;5050334;28;20025;-90
2021/05/16 04:52:59;;;;;;;13.52;4.60;;;12.00;81.30;;;;;;5054777;28;20041;-89
2021/05/16 04:55:25;;;;;;;15.73;6.00;;;12.00;81.20;;;;;;5049195;28;20060;-85
2021/05/16 04:57:51;;;;;;;18.50;6.00;;;12.10;81.20;;;;;;5040816;28;20017;-85
2021/05/16 05:00:18;;;;;;;20.40;6.85;;;12.10;81.10;;;;;;5051209;28;20032;-87
2021/05/16 05:02:46;;;;;;;24.85;8.38;;;12.00;81.10;;;;;;5048575;28;20021;-86
2021/05/16 05:05:12;;;;;;;17.33;6.22;;;11.90;81.20;;;;;;5044330;28;20552;-85
2021/05/16 05:07:37;;;;;;;15.93;6.15;;;12.00;81.30;;;;;;5051619;28;20696;-87
2021/05/16 05:10:04;;;;;;;15.15;5.55;;;11.90;81.30;;;;;;5048356;28;20033;-88
2021/05/16 05:12:30;;;;;;;19.17;7.00;;;11.90;81.40;;;;;;5051375;28;20017;-86
2021/05/16 05:14:56;;;;;;;19.55;6.28;;;11.90;81.50;;;;;;5043027;28;20692;-89
2021/05/16 05:17:21;;;;;;;13.13;5.18;;;11.90;81.40;;;;;;5037800;28;20040;-86
2021/05/16 05:19:47;;;;;;;13.40;4.95;;;11.90;81.40;;;;;;5045050;28;20049;-86
2021/05/16 05:22:12;;;;;;;12.90;4.75;;;12.00;81.40;;;;;;5041545;28;20543;-83
2021/05/16 05:24:38;;;;;;;13.30;5.35;;;12.00;81.30;;;;;;5040983;28;20540;-85
2021/05/16 05:27:04;;;;;;;10.25;4.32;;;12.10;81.20;;;;;;5038114;28;20399;-85
2021/05/16 05:29:29;;;;;;;12.63;4.57;;;12.10;81.10;;;;;;5044779;28;20047;-85
2021/05/16 05:31:55;;;;;;;12.68;4.97;;;12.10;81.00;;;;;;5042595;28;20433;-86
2021/05/16 05:34:24;;;;;;;11.18;4.43;;;12.10;81.00;;;;;;5046102;28;20480;-88
2021/05/16 05:36:50;;;;;;;17.52;7.13;;;12.10;81.10;;;;;;5033937;28;20018;-85
2021/05/16 05:39:17;;;;;;;15.88;6.07;;;12.20;81.10;;;;;;5040676;28;20033;-88
2021/05/16 05:41:44;;;;;;;11.13;5.07;;;12.10;81.10;;;;;;5042331;28;20074;-87
2021/05/16 05:44:11;;;;;;;14.25;5.32;;;12.20;81.10;;;;;;5047710;28;20161;-89
2021/05/16 05:46:36;;;;;;;10.35;4.97;;;12.20;81.00;;;;;;5050368;28;20045;-86
2021/05/16 05:49:02;;;;;;;11.57;4.50;;;12.20;80.90;;;;;;5043134;28;20021;-86
2021/05/16 05:51:28;;;;;;;12.10;5.10;;;12.20;80.80;;;;;;5046950;28;20025;-85
2021/05/16 05:53:54;;;;;;;11.95;4.60;;;12.30;80.70;;;;;;5041532;28;20036;-86
2021/05/16 05:56:19;;;;;;;13.98;5.85;;;12.30;80.60;;;;;;5047802;28;20063;-87
2021/05/16 05:58:45;;;;;;;8.88;3.90;;;12.30;80.50;;;;;;5047191;28;20080;-89
2021/05/16 06:01:11;;;;;;;11.82;5.72;;;12.30;80.50;;;;;;5043616;28;20459;-86
2021/05/16 06:03:36;;;;;;;15.98;6.50;;;12.30;80.50;;;;;;5045124;28;20021;-87
2021/05/16 06:06:03;;;;;;;11.80;5.00;;;12.20;80.50;;;;;;5036360;28;20397;-86
2021/05/16 06:08:29;;;;;;;10.88;5.18;;;12.30;80.50;;;;;;5041611;28;20028;-86
2021/05/16 06:10:54;;;;;;;11.90;5.35;;;12.30;80.50;;;;;;5041073;28;20022;-88
2021/05/16 06:13:20;;;;;;;11.55;4.55;;;12.30;80.50;;;;;;5042175;28;20053;-88
2021/05/16 06:15:46;;;;;;;14.32;5.63;;;12.40;80.40;;;;;;5040510;28;20029;-88
2021/05/16 06:18:11;;;;;;;12.27;4.47;;;12.40;80.40;;;;;;5039598;28;20029;-88
2021/05/16 06:20:37;;;;;;;15.38;5.50;;;12.40;80.40;;;;;;5039700;28;20391;-85
2021/05/16 06:23:03;;;;;;;10.20;4.47;;;12.40;80.30;;;;;;5042834;28;20033;-87
2021/05/16 06:25:29;;;;;;;15.07;6.40;;;12.50;80.30;;;;;;5038772;28;20108;-88
2021/05/16 06:27:58;;;;;;;19.85;8.57;;;12.50;80.20;;;;;;5039569;28;20108;-88
2021/05/16 06:30:27;;;;;;;14.02;5.95;;;12.50;80.00;;;;;;5048405;28;20375;-90
2021/05/16 06:32:53;;;;;;;12.45;6.45;;;12.50;80.00;;;;;;5047477;28;20039;-89
2021/05/16 06:35:19;;;;;;;14.30;6.63;;;12.50;80.00;;;;;;5045611;28;20036;-88
2021/05/16 06:37:46;;;;;;;13.07;6.40;;;12.50;80.00;;;;;;5048116;28;20037;-89
2021/05/16 06:40:13;;;;;;;14.30;6.38;;;12.50;80.00;;;;;;5048825;28;20029;-93
2021/05/16 06:42:40;;;;;;;19.33;8.07;;;12.50;80.00;;;;;;5048148;28;20056;-84
2021/05/16 06:45:07;;;;;;;16.42;6.95;;;12.60;80.00;;;;;;5039764;28;20032;-86
2021/05/16 06:47:32;;;;;;;13.02;6.13;;;12.60;79.90;;;;;;5043464;28;20381;-86
2021/05/16 06:49:58;;;;;;;16.83;6.93;;;12.60;79.90;;;;;;5039808;28;20028;-86
2021/05/16 06:52:23;;;;;;;14.55;5.70;;;12.70;79.90;;;;;;5045779;28;20032;-91
2021/05/16 06:54:49;;;;;;;18.58;9.00;;;12.70;79.70;;;;;;5046575;28;20009;-82
2021/05/16 06:57:16;;;;;;;21.35;8.38;;;12.90;79.40;;;;;;5036381;28;20442;-84
2021/05/16 06:59:41;;;;;;;14.20;6.55;;;12.80;78.90;;;;;;5048826;28;20119;-85
2021/05/16 07:02:07;;;;;;;10.38;4.93;;;12.90;79.00;;;;;;5048769;28;20052;-85
2021/05/16 07:04:33;;;;;;;12.05;5.45;;;13.00;78.80;;;;;;5046348;28;20025;-85
2021/05/16 07:06:59;;;;;;;15.52;5.70;;;13.00;78.60;;;;;;5042185;28;20024;-85
2021/05/16 07:09:24;;;;;;;18.48;7.07;;;13.20;78.50;;;;;;5044952;28;20025;-85
2021/05/16 07:11:50;;;;;;;14.48;6.28;;;13.20;78.30;;;;;;5045234;28;20093;-86
2021/05/16 07:14:15;;;;;;;12.40;6.18;;;13.20;78.10;;;;;;5041435;28;20108;-87
2021/05/16 07:16:41;;;;;;;10.98;5.53;;;13.30;77.80;;;;;;5041374;28;20025;-87
2021/05/16 07:19:06;;;;;;;12.43;4.90;;;13.40;77.60;;;;;;5044232;28;20071;-87
2021/05/16 07:21:32;;;;;;;11.40;4.40;;;13.40;77.50;;;;;;5044341;28;20029;-86
2021/05/16 07:23:57;;;;;;;15.45;6.20;;;13.50;77.40;;;;;;5046808;28;20025;-85
2021/05/16 07:26:23;;;;;;;11.85;5.40;;;13.40;77.20;;;;;;5048028;28;20055;-86
2021/05/16 07:28:50;;;;;;;14.13;6.15;;;13.30;77.30;;;;;;5045259;28;20017;-87
2021/05/16 07:31:15;;;;;;;11.52;4.82;;;13.30;77.20;;;;;;5040418;28;20029;-86
2021/05/16 07:33:41;;;;;;;16.38;7.47;;;13.40;77.10;;;;;;5043894;28;20101;-86
2021/05/16 07:36:07;;;;;;;14.77;7.18;;;13.30;77.10;;;;;;5046786;28;20062;-86
2021/05/16 07:38:33;;;;;;;14.60;5.88;;;13.30;77.00;;;;;;5038552;28;20037;-87
2021/05/16 07:40:58;;;;;;;11.63;5.07;;;13.30;77.00;;;;;;5044515;28;20442;-86
2021/05/16 07:43:25;;;;;;;9.02;4.55;;;13.30;77.00;;;;;;5045506;28;20032;-85
2021/05/16 07:45:51;;;;;;;14.30;6.50;;;13.40;76.90;;;;;;5028886;28;20057;-86
2021/05/16 07:48:18;;;;;;;15.40;6.72;;;13.40;76.70;;;;;;5043966;28;20030;-87
2021/05/16 07:50:43;;;;;;;16.05;6.50;;;13.40;76.50;;;;;;5027702;28;20499;-84
2021/05/16 07:53:09;;;;;;;9.00;4.05;;;13.40;76.60;;;;;;5045854;28;20028;-84
2021/05/16 07:55:41;;;;;;;15.82;6.03;;;13.40;76.70;;;;;;5036357;28;20536;-86
2021/05/16 07:58:06;;;;;;;17.80;6.82;;;13.30;76.40;;;;;;5037654;28;20372;-86
2021/05/16 08:00:32;;;;;;;13.18;6.30;;;13.20;76.70;;;;;;5043291;28;20032;-86
2021/05/16 08:02:58;;;;;;;9.13;4.10;;;13.10;76.80;;;;;;5036966;28;20107;-85
2021/05/16 08:05:23;;;;;;;9.43;3.60;;;13.10;76.90;;;;;;5040481;28;20033;-86
2021/05/16 08:07:49;;;;;;;11.75;5.10;;;13.10;77.50;;;;;;5046386;28;20051;-84
2021/05/16 08:10:19;;;;;;;13.18;5.70;;;13.10;76.80;;;;;;5049462;28;20112;-85
2021/05/16 08:12:45;;;;;;;9.88;4.80;;;13.10;76.90;;;;;;5047414;28;20025;-85
2021/05/16 08:15:11;;;;;;;17.05;8.65;;;13.20;76.80;;;;;;5038275;28;20516;-84
2021/05/16 08:17:37;;;;;;;14.40;7.55;;;13.20;76.40;;;;;;5044111;28;20106;-84
2021/05/16 08:20:07;;;;;;;11.38;5.85;;;13.30;76.30;;;;;;5044656;28;20610;-85
2021/05/16 08:22:33;;;;;;;15.23;6.88;;;13.40;76.30;;;;;;5041683;28;20032;-85
2021/05/16 08:24:59;;;;;;;16.20;8.93;;;13.50;76.20;;;;;;5041674;28;20116;-84
2021/05/16 08:27:25;;;;;;;17.73;8.95;;;13.60;75.80;;;;;;5041604;28;20116;-93
2021/05/16 08:29:50;;;;;;;11.60;6.50;;;13.70;75.50;;;;;;5044725;28;20022;-92
2021/05/16 08:32:16;;;;;;;13.98;7.40;;;13.80;75.20;;;;;;5049460;28;20833;-92
2021/05/16 08:34:42;;;;;;;17.25;8.80;;;13.90;75.10;;;;;;5054878;28;20021;-91
2021/05/16 08:37:10;;;;;;;12.65;6.32;;;13.90;74.80;;;;;;5044027;28;20024;-91
2021/05/16 08:39:36;;;;;;;18.30;9.02;;;13.90;75.40;;;;;;5039890;28;20076;-93
2021/05/16 08:42:02;;;;;;;16.83;8.60;;;13.80;74.40;;;;;;5038930;28;20072;-88
2021/05/16 08:44:31;;;;;;;17.50;7.50;;;13.70;74.50;;;;;;5044061;28;20013;-85
2021/05/16 08:46:58;;;;;;;16.27;8.52;;;13.80;74.50;;;;;;5042583;28;20045;-87
2021/05/16 08:49:24;;;;;;;15.88;7.57;;;13.80;74.30;;;;;;5040352;28;20036;-87
2021/05/16 08:51:52;;;;;;;12.88;6.50;;;13.80;74.40;;;;;;5040336;28;20017;-84
2021/05/16 08:54:19;;;;;;;12.13;7.18;;;14.00;74.30;;;;;;5041587;28;20033;-87
2021/05/16 08:56:49;;;;;;;17.55;9.30;;;14.20;74.00;;;;;;5042381;28;20030;-87
2021/05/16 08:59:15;;;;;;;18.33;8.63;;;14.20;73.30;;;;;;5039171;28;20520;-88
2021/05/16 09:01:51;;;;;;;14.05;7.40;;;14.20;73.00;;;;;;5044133;28;20086;-86
2021/05/16 09:04:35;;;;;;;17.58;8.38;;;14.40;73.00;;;;;;5039665;28;20037;-87
2021/05/16 09:07:02;;;;;;;22.05;9.90;;;14.70;72.40;;;;;;5040132;28;20439;-85
2021/05/16 09:09:30;;;;;;;17.38;8.30;;;15.00;71.40;;;;;;5040377;28;20040;-85
2021/05/16 09:12:07;;;;;;;18.05;8.60;;;15.20;71.00;;;;;;5039038;28;20598;-87
2021/05/16 09:14:42;;;;;;;14.55;7.25;;;15.50;70.30;;;;;;5044105;28;20021;-87
2021/05/16 09:17:22;;;;;;;20.25;8.88;;;15.60;69.90;;;;;;5045480;28;20043;-89
2021/05/16 09:19:52;;;;;;;13.38;7.03;;;15.60;69.10;;;;;;5047048;28;20385;-88
2021/05/16 09:22:45;;;;;;;13.20;6.40;;;15.60;69.10;;;;;;5052056;28;20024;-89
2021/05/16 09:25:21;;;;;;;16.38;7.88;;;15.70;68.10;;;;;;5041026;28;20434;-91
2021/05/16 09:27:52;;;;;;;15.45;7.78;;;15.90;67.50;;;;;;5038335;28;20843;-89
2021/05/16 09:30:18;;;;;;;16.67;7.82;;;16.00;67.20;;;;;;5042644;28;20022;-89
2021/05/16 09:32:48;;;;;;;16.98;9.20;;;16.30;67.20;;;;;;5044244;28;20841;-90
2021/05/16 09:35:15;;;;;;;16.77;7.85;;;16.30;65.90;;;;;;5045818;28;20067;-95
2021/05/16 09:38:04;;;;;;;11.90;5.93;;;16.40;65.80;;;;;;5045988;28;20093;-90
2021/05/16 09:40:33;;;;;;;18.35;7.15;;;16.40;65.50;;;;;;5044106;28;20025;-90
2021/05/16 09:43:15;;;;;;;17.05;8.15;;;16.40;64.30;;;;;;5047153;28;20021;-86
2021/05/16 09:45:56;;;;;;;8.98;5.47;;;16.40;63.10;;;;;;5043305;28;20544;-87
2021/05/16 09:48:32;;;;;;;10.48;5.13;;;16.40;63.70;;;;;;5038995;28;20037;-85
2021/05/16 09:51:18;;;;;;;11.02;5.50;;;16.40;64.00;;;;;;5047959;28;20037;-85
2021/05/16 09:54:01;;;;;;;10.25;4.95;;;16.40;64.10;;;;;;5051949;28;20039;-84
2021/05/16 09:56:35;;;;;;;9.55;4.53;;;16.70;63.90;;;;;;5043781;28;20033;-82
2021/05/16 09:59:07;;;;;;;12.05;4.75;;;16.90;63.10;;;;;;5039652;28;20029;-83
2021/05/16 10:01:33;;;;;;;13.82;7.00;;;17.10;62.70;;;;;;5038191;28;20052;-85
2021/05/16 10:04:01;;;;;;;14.55;6.40;;;17.20;61.40;;;;;;5043222;28;20026;-86
2021/05/16 10:06:28;;;;;;;8.07;4.38;;;17.10;60.30;;;;;;5041138;28;20160;-85
2021/05/16 10:08:54;;;;;;;8.75;4.07;;;17.20;60.60;;;;;;5040833;28;20025;-85
2021/05/16 10:11:22;;;;;;;9.30;4.30;;;17.30;60.40;;;;;;5048578;28;20394;-85
2021/05/16 10:14:11;;;;;;;12.77;6.05;;;17.30;59.70;;;;;;5042301;28;20510;-86
2021/05/16 10:16:46;;;;;;;8.93;3.45;;;17.30;58.30;;;;;;5040325;28;20041;-85
2021/05/16 10:19:25;;;;;;;9.98;3.90;;;17.20;59.10;;;;;;5044630;28;20033;-86
2021/05/16 10:22:16;;;;;;;12.43;4.30;;;17.30;59.50;;;;;;5046867;28;20632;-86
2021/05/16 10:24:47;;;;;;;7.50;2.90;;;17.20;58.80;;;;;;5035393;28;20403;-86
2021/05/16 10:27:22;;;;;;;8.95;4.15;;;17.20;59.60;;;;;;5042045;28;20033;-87
2021/05/16 10:30:03;;;;;;;9.30;3.45;;;17.30;58.80;;;;;;5040063;28;20020;-87
2021/05/16 10:32:34;;;;;;;9.20;3.70;;;17.40;59.00;;;;;;5034742;28;20025;-86
2021/05/16 10:35:02;;;;;;;14.18;5.15;;;17.40;58.20;;;;;;5041195;28;20035;-87
2021/05/16 10:37:53;;;;;;;8.80;2.97;;;17.30;57.50;;;;;;5042614;28;20079;-86
2021/05/16 10:40:36;;;;;;;11.07;3.35;;;17.30;58.40;;;;;;5041533;28;20025;-85
2021/05/16 10:43:24;;;;;;;6.95;2.65;;;17.10;58.10;;;;;;5041787;28;20022;-87
2021/05/16 10:45:50;;;;;;;7.80;2.75;;;17.10;58.20;;;;;;5043621;28;20111;-87
2021/05/16 10:48:28;;;;;;;5.57;1.83;;;17.00;58.00;;;;;;5044264;28;20108;-84
2021/05/16 10:50:58;;;;;;;5.18;1.70;;;17.00;58.80;;;;;;5048238;28;20017;-87
2021/05/16 10:53:32;;;;;;;6.15;2.10;;;17.30;59.00;;;;;;5047446;28;20033;-84
2021/05/16 10:56:09;;;;;;;5.35;1.90;;;17.40;59.00;;;;;;5039570;28;20043;-85
2021/05/16 10:58:43;;;;;;;4.90;1.67;;;17.60;58.80;;;;;;5044363;28;20037;-84
2021/05/16 11:01:16;;;;;;;5.40;2.00;;;17.70;58.50;;;;;;5039153;28;20189;-83
2021/05/16 11:03:42;;;;;;;7.18;2.10;;;17.80;58.20;;;;;;5042970;28;20380;-83
2021/05/16 11:06:07;;;;;;;9.13;2.67;;;17.80;58.30;;;;;;5040691;28;20036;-83
2021/05/16 11:08:33;;;;;;;7.75;2.45;;;17.90;58.00;;;;;;5042816;28;20462;-83
2021/05/16 11:11:00;;;;;;;9.52;2.60;;;17.70;57.40;;;;;;5042293;28;20069;-84
2021/05/16 11:13:29;;;;;;;7.55;2.47;;;17.60;57.10;;;;;;5048919;28;20021;-83
2021/05/16 11:15:57;;;;;;;7.88;2.58;;;17.40;57.00;;;;;;5044160;28;20503;-82
2021/05/16 11:18:23;;;;;;;6.65;1.98;;;17.50;57.60;;;;;;5039569;28;20030;-83
2021/05/16 11:20:51;;;;;;;4.00;1.70;;;17.70;57.80;;;;;;5039162;28;20470;-83
2021/05/16 11:23:22;;;;;;;4.70;1.60;;;18.00;57.50;;;;;;5037193;28;20109;-83
2021/05/16 11:26:09;;;;;;;5.88;2.40;;;18.10;57.10;;;;;;5039541;28;20029;-84
2021/05/16 11:28:37;;;;;;;10.18;2.45;;;18.20;56.50;;;;;;5036853;28;20025;-83
2021/05/16 11:31:09;;;;;;;8.52;2.53;;;18.10;56.10;;;;;;5043953;28;20049;-83
2021/05/16 11:33:37;;;;;;;5.32;1.85;;;18.00;56.00;;;;;;5040175;28;20030;-83
2021/05/16 11:36:11;;;;;;;3.97;1.70;;;18.20;56.60;;;;;;5037419;28;20029;-83
2021/05/16 11:38:39;;;;;;;5.22;1.98;;;18.20;56.60;;;;;;5041626;28;20040;-83
2021/05/16 11:41:05;;;;;;;7.32;2.17;;;18.20;56.30;;;;;;5037338;28;20107;-83
2021/05/16 11:43:36;;;;;;;5.72;2.03;;;18.10;56.70;;;;;;5035596;28;20026;-83
2021/05/16 11:46:03;;;;;;;8.48;2.47;;;18.00;56.80;;;;;;5038755;28;20170;-83
2021/05/16 11:48:36;;;;;;;6.70;2.58;;;17.70;57.30;;;;;;5035006;28;20067;-82
2021/05/16 11:51:07;;;;;;;6.55;1.90;;;17.30;58.70;;;;;;5038676;28;20479;-83
2021/05/16 11:53:33;;;;;;;5.18;1.63;;;16.60;60.20;;;;;;5047434;28;20125;-84
2021/05/16 11:56:02;;;;;;;5.93;1.45;;;15.70;61.70;;;;;;5034970;28;20053;-81
2021/05/16 11:58:29;;;;;;;3.28;1.50;;;15.10;63.30;;;;;;5045231;28;20364;-83
2021/05/16 12:00:55;;;;;;;2.70;1.20;;;14.70;64.50;;;;;;5042861;28;20044;-82
2021/05/16 12:03:21;;;;;;;3.20;1.30;;;14.60;64.90;;;;;;5042983;28;20033;-82
2021/05/16 12:05:47;;;;;;;2.47;1.00;;;14.60;65.30;;;;;;5040159;28;20048;-82
2021/05/16 12:08:23;;;;;;;3.10;1.00;;;14.60;65.80;;;;;;5036480;28;20369;-84
2021/05/16 12:11:05;;;;;;;3.33;1.30;;;14.50;66.00;;;;;;5040985;28;20021;-83
2021/05/16 12:13:32;;;;;;;2.85;1.10;;;14.60;66.40;;;;;;5040709;28;20025;-86
2021/05/16 12:16:16;;;;;;;2.55;1.30;;;14.80;66.70;;;;;;5033316;28;20435;-86
2021/05/16 12:18:42;;;;;;;3.80;1.40;;;14.80;67.60;;;;;;5038543;28;20018;-86
2021/05/16 12:21:08;;;;;;;3.20;1.00;;;14.90;67.10;;;;;;5038744;28;20037;-85
2021/05/16 12:23:35;;;;;;;2.28;1.15;;;15.00;67.20;;;;;;5033805;28;20496;-85
2021/05/16 12:26:01;;;;;;;3.72;1.20;;;15.10;67.50;;;;;;5036851;28;20041;-84
2021/05/16 12:28:27;;;;;;;3.17;1.20;;;15.30;67.60;;;;;;5036663;28;20506;-85
2021/05/16 12:30:53;;;;;;;3.35;1.50;;;15.50;67.50;;;;;;5037066;28;20030;-85
2021/05/16 12:33:19;;;;;;;3.80;1.30;;;15.80;67.30;;;;;;5036499;28;20036;-86
2021/05/16 12:35:46;;;;;;;1.65;0.90;;;15.90;66.90;;;;;;5037229;28;20105;-84
2021/05/16 12:38:13;;;;;;;3.45;1.17;;;16.10;66.60;;;;;;5037841;28;20036;-84
2021/05/16 12:40:40;;;;;;;2.85;1.30;;;16.30;66.40;;;;;;5036976;28;20152;-85
2021/05/16 12:43:09;;;;;;;3.60;1.23;;;16.40;65.90;;;;;;5038797;28;20051;-84